Time;durP1;ratioP1;P1;durP2;ratioP2;P2;SDS_P1;SDS_P2;PMS_P1;PMS_P2;Temp;Humidity;BMP_temperature;BMP_pressure;BME280_temperature;BME280_humidity;BME280_pressure;Samples;Min_cycle;Max_cycle;Signal;HPM_P1;HPM_P2
2023/06/26 00:00:14;;;;;;;5.88;5.38;;;;;;;;;;4965270;28;20455;-65
2023/06/26 00:02:42;;;;;;;5.70;5.20;;;;;;;;;;4967364;28;20439;-63
2023/06/26 00:05:09;;;;;;;5.80;5.30;;;;;;;;;;4961252;28;20835;-65
2023/06/26 00:07:36;;;;;;;5.75;5.25;;;;;;;;;;4961350;28;20946;-65
2023/06/26 00:10:04;;;;;;;5.90;5.40;;;;;;;;;;4965843;28;20420;-63
2023/06/26 00:12:31;;;;;;;5.95;5.45;;;;;;;;;;4966082;28;20937;-64
2023/06/26 00:14:58;;;;;;;6.63;6.03;;;;;;;;;;5090996;23;20438;-62
2023/06/26 00:17:27;;;;;;;6.25;5.70;;;;;;;;;;5114505;28;20416;-65
2023/06/26 00:19:54;;;;;;;6.28;5.68;;;;;;;;;;5116270;27;20420;-62
2023/06/26 00:22:22;;;;;;;5.60;5.20;;;;;;;;;;5112337;28;20927;-62
2023/06/26 00:24:49;;;;;;;7.20;5.90;;;;;;;;;;5110222;28;20420;-65
2023/06/26 00:27:16;;;;;;;6.60;6.00;;;;;;;;;;5094929;28;20416;-63
2023/06/26 00:29:43;;;;;;;6.30;5.70;;;;;;;;;;5092110;28;20441;-63
2023/06/26 00:32:10;;;;;;;6.90;6.20;;;;;;;;;;5100836;27;20408;-63
2023/06/26 00:34:38;;;;;;;6.30;5.70;;;;;;;;;;5091617;28;20417;-63
2023/06/26 00:37:05;;;;;;;6.70;6.10;;;;;;;;;;5104779;28;20428;-63
2023/06/26 00:39:33;;;;;;;6.30;5.80;;;;;;;;;;5091388;28;20664;-63
2023/06/26 00:42:00;;;;;;;6.60;6.00;;;;;;;;;;5092278;28;20414;-63
2023/06/26 00:44:27;;;;;;;6.50;6.00;;;;;;;;;;5095872;28;20418;-62
2023/06/26 00:46:55;;;;;;;6.90;6.30;;;;;;;;;;5103480;28;20448;-63
2023/06/26 00:49:22;;;;;;;6.30;5.80;;;;;;;;;;5092927;28;20433;-62
2023/06/26 00:51:50;;;;;;;6.20;5.70;;;;;;;;;;5102454;28;20830;-62
2023/06/26 00:54:20;;;;;;;6.80;6.10;;;;;;;;;;5090753;28;20461;-62
2023/06/26 00:56:47;;;;;;;6.90;6.10;;;;;;;;;;5091052;28;20414;-63
2023/06/26 00:59:15;;;;;;;6.80;6.20;;;;;;;;;;5095929;28;20859;-62
2023/06/26 01:01:42;;;;;;;6.95;6.45;;;;;;;;;;5090951;28;20907;-62
2023/06/26 01:04:17;;;;;;;6.70;6.20;;;;;;;;;;5091200;28;20784;-62
2023/06/26 01:06:48;;;;;;;6.95;6.35;;;;;;;;;;5109636;28;20491;-64
2023/06/26 01:09:16;;;;;;;6.95;6.35;;;;;;;;;;5095536;28;20439;-63
2023/06/26 01:11:43;;;;;;;6.47;5.97;;;;;;;;;;5091129;28;20896;-63
2023/06/26 01:14:10;;;;;;;7.32;6.72;;;;;;;;;;5091332;28;20417;-62
2023/06/26 01:16:38;;;;;;;7.20;6.60;;;;;;;;;;5098988;28;20800;-63
2023/06/26 01:19:08;;;;;;;6.90;6.30;;;;;;;;;;5090003;28;20418;-62
2023/06/26 01:21:36;;;;;;;6.68;6.18;;;;;;;;;;5090923;28;20441;-62
2023/06/26 01:24:06;;;;;;;6.82;6.22;;;;;;;;;;5093804;28;20427;-63
2023/06/26 01:26:36;;;;;;;6.80;6.20;;;;;;;;;;5100445;28;20410;-63
2023/06/26 01:29:04;;;;;;;6.90;6.30;;;;;;;;;;5099350;28;20820;-63
2023/06/26 01:31:31;;;;;;;6.43;5.90;;;;;;;;;;5091316;28;20422;-62
2023/06/26 01:34:00;;;;;;;7.20;6.60;;;;;;;;;;5090175;28;20417;-63
2023/06/26 01:36:27;;;;;;;6.60;6.10;;;;;;;;;;5102623;28;20417;-63
2023/06/26 01:38:54;;;;;;;7.10;6.45;;;;;;;;;;5118476;27;20516;-63
2023/06/26 01:41:21;;;;;;;7.55;6.95;;;;;;;;;;5090800;28;20432;-63
2023/06/26 01:44:00;;;;;;;7.40;6.80;;;;;;;;;;5098424;28;20433;-63
2023/06/26 01:46:31;;;;;;;7.05;6.35;;;;;;;;;;5098545;28;20414;-62
2023/06/26 01:49:02;;;;;;;7.00;6.40;;;;;;;;;;5110124;28;20408;-63
2023/06/26 01:51:32;;;;;;;7.03;6.43;;;;;;;;;;5106139;28;20424;-63
2023/06/26 01:54:00;;;;;;;7.38;6.88;;;;;;;;;;5090241;28;20410;-63
2023/06/26 01:56:28;;;;;;;6.63;6.03;;;;;;;;;;5089995;28;20409;-63
2023/06/26 01:58:57;;;;;;;6.97;6.47;;;;;;;;;;5093366;28;20430;-63
2023/06/26 02:01:24;;;;;;;6.95;6.45;;;;;;;;;;5093402;28;20438;-63
2023/06/26 02:03:52;;;;;;;6.70;6.20;;;;;;;;;;5101498;28;20427;-63
2023/06/26 02:06:19;;;;;;;6.90;6.30;;;;;;;;;;5091851;28;20413;-63
2023/06/26 02:08:46;;;;;;;7.35;6.75;;;;;;;;;;5089545;28;20414;-63
2023/06/26 02:11:13;;;;;;;7.38;6.70;;;;;;;;;;5103759;28;20420;-63
2023/06/26 02:13:40;;;;;;;7.18;6.47;;;;;;;;;;5098459;28;20410;-63
2023/06/26 02:16:08;;;;;;;7.40;6.70;;;;;;;;;;5102792;28;20422;-63
2023/06/26 02:18:35;;;;;;;7.90;7.10;;;;;;;;;;5117482;27;20486;-63
2023/06/26 02:21:05;;;;;;;7.40;6.70;;;;;;;;;;5091291;27;20420;-64
2023/06/26 02:23:32;;;;;;;7.30;6.70;;;;;;;;;;5092174;28;20451;-63
2023/06/26 02:25:59;;;;;;;7.25;6.65;;;;;;;;;;5094593;28;20410;-63
2023/06/26 02:28:26;;;;;;;7.78;7.07;;;;;;;;;;5093360;28;20804;-62
2023/06/26 02:30:53;;;;;;;7.20;6.60;;;;;;;;;;5095366;28;20715;-63
2023/06/26 02:33:22;;;;;;;7.15;6.55;;;;;;;;;;5090940;27;20409;-63
2023/06/26 02:35:50;;;;;;;6.90;6.30;;;;;;;;;;5122098;27;20420;-63
2023/06/26 02:38:17;;;;;;;6.80;6.28;;;;;;;;;;5107741;28;20435;-63
2023/06/26 02:40:44;;;;;;;7.35;6.70;;;;;;;;;;5088304;28;20421;-63
2023/06/26 02:43:11;;;;;;;7.50;6.90;;;;;;;;;;5100515;28;20420;-63
2023/06/26 02:45:38;;;;;;;6.90;6.40;;;;;;;;;;5088846;28;20409;-63
2023/06/26 02:48:05;;;;;;;7.35;6.75;;;;;;;;;;5089735;28;20406;-63
2023/06/26 02:50:34;;;;;;;7.18;6.57;;;;;;;;;;5106893;28;20775;-63
2023/06/26 02:53:01;;;;;;;7.50;6.90;;;;;;;;;;5094758;28;20757;-63
2023/06/26 02:55:28;;;;;;;6.75;6.05;;;;;;;;;;5099493;28;20429;-63
2023/06/26 02:57:55;;;;;;;7.20;6.60;;;;;;;;;;5094724;28;20432;-63
2023/06/26 03:00:22;;;;;;;6.90;6.30;;;;;;;;;;5096826;28;20894;-63
2023/06/26 03:02:50;;;;;;;7.00;6.45;;;;;;;;;;5095886;28;20795;-63
2023/06/26 03:05:17;;;;;;;7.78;7.18;;;;;;;;;;5098189;28;20777;-63
2023/06/26 03:07:45;;;;;;;7.78;7.07;;;;;;;;;;5088517;28;20889;-63
2023/06/26 03:10:12;;;;;;;7.40;6.80;;;;;;;;;;5093902;28;20443;-63
2023/06/26 03:12:39;;;;;;;6.90;6.30;;;;;;;;;;5092999;28;20444;-63
2023/06/26 03:15:07;;;;;;;6.90;6.30;;;;;;;;;;5095876;27;20623;-63
2023/06/26 03:17:34;;;;;;;6.80;5.93;;;;;;;;;;5088352;28;20888;-63
2023/06/26 03:20:01;;;;;;;6.50;6.00;;;;;;;;;;5088429;28;20421;-63
2023/06/26 03:22:28;;;;;;;6.82;6.10;;;;;;;;;;5088671;28;20413;-63
2023/06/26 03:24:56;;;;;;;6.00;5.50;;;;;;;;;;5094403;28;20420;-63
2023/06/26 03:27:23;;;;;;;6.00;5.50;;;;;;;;;;5099024;28;20429;-63
2023/06/26 03:29:50;;;;;;;5.90;5.30;;;;;;;;;;5097540;28;20417;-63
2023/06/26 03:32:17;;;;;;;5.80;5.30;;;;;;;;;;5088179;28;20414;-63
2023/06/26 03:34:45;;;;;;;5.82;5.32;;;;;;;;;;5091619;28;20691;-63
2023/06/26 03:37:12;;;;;;;6.00;5.50;;;;;;;;;;5089240;28;20428;-63
2023/06/26 03:39:39;;;;;;;6.10;5.50;;;;;;;;;;5092481;28;20436;-63
2023/06/26 03:42:08;;;;;;;6.25;5.70;;;;;;;;;;5088332;28;20421;-63
2023/06/26 03:44:35;;;;;;;6.10;5.60;;;;;;;;;;5092750;28;20430;-62
2023/06/26 03:47:02;;;;;;;5.63;5.13;;;;;;;;;;5095033;28;20467;-63
2023/06/26 03:49:29;;;;;;;6.10;5.38;;;;;;;;;;5091594;28;20418;-63
2023/06/26 03:51:56;;;;;;;5.63;5.13;;;;;;;;;;5102901;28;20583;-63
2023/06/26 03:54:24;;;;;;;5.30;4.90;;;;;;;;;;5110663;28;20428;-63
2023/06/26 03:56:51;;;;;;;6.45;5.53;;;;;;;;;;5092819;28;20410;-63
2023/06/26 03:59:19;;;;;;;5.85;5.28;;;;;;;;;;5103485;28;20435;-63
2023/06/26 04:01:46;;;;;;;5.60;5.10;;;;;;;;;;5098524;28;20429;-62
2023/06/26 04:04:13;;;;;;;6.05;5.45;;;;;;;;;;5103782;28;20491;-63
2023/06/26 04:06:40;;;;;;;6.00;5.50;;;;;;;;;;5092057;28;20421;-63
2023/06/26 04:09:07;;;;;;;5.30;4.80;;;;;;;;;;5092185;28;20876;-63
2023/06/26 04:11:34;;;;;;;5.13;4.60;;;;;;;;;;5092232;28;20425;-64
2023/06/26 04:14:02;;;;;;;6.18;5.57;;;;;;;;;;5098474;28;20422;-62
2023/06/26 04:16:31;;;;;;;5.55;5.10;;;;;;;;;;5093897;28;20428;-63
2023/06/26 04:18:58;;;;;;;5.60;5.10;;;;;;;;;;5092035;28;20413;-63
2023/06/26 04:21:25;;;;;;;5.85;5.25;;;;;;;;;;5091974;28;20413;-63
2023/06/26 04:23:52;;;;;;;5.35;4.78;;;;;;;;;;5093811;28;20422;-63
2023/06/26 04:26:19;;;;;;;6.68;4.80;;;;;;;;;;5103449;28;20416;-63
2023/06/26 04:28:46;;;;;;;6.10;5.50;;;;;;;;;;5102946;28;20788;-62
2023/06/26 04:31:13;;;;;;;6.82;5.10;;;;;;;;;;5096577;27;20923;-62
2023/06/26 04:33:42;;;;;;;5.53;5.03;;;;;;;;;;5101985;27;20404;-63
2023/06/26 04:36:09;;;;;;;5.85;5.10;;;;;;;;;;5091519;28;20421;-63
2023/06/26 04:38:36;;;;;;;5.40;4.90;;;;;;;;;;5091359;28;20414;-63
2023/06/26 04:41:04;;;;;;;5.90;4.45;;;;;;;;;;5100667;28;20415;-63
2023/06/26 04:43:31;;;;;;;5.50;5.00;;;;;;;;;;5103517;28;20517;-63
2023/06/26 04:45:58;;;;;;;6.22;4.70;;;;;;;;;;5098832;28;20412;-63
2023/06/26 04:48:27;;;;;;;5.53;4.95;;;;;;;;;;5098047;28;20412;-63
2023/06/26 04:50:55;;;;;;;4.78;4.38;;;;;;;;;;5109338;28;20423;-62
2023/06/26 04:53:23;;;;;;;5.47;4.97;;;;;;;;;;5093205;28;20421;-62
2023/06/26 04:55:50;;;;;;;5.00;4.50;;;;;;;;;;5091769;28;20460;-62
2023/06/26 04:58:17;;;;;;;6.70;4.70;;;;;;;;;;5102662;27;20424;-63
2023/06/26 05:00:44;;;;;;;4.60;4.20;;;;;;;;;;5102038;28;20429;-62
2023/06/26 05:03:12;;;;;;;5.68;5.18;;;;;;;;;;5096113;28;20421;-63
2023/06/26 05:05:39;;;;;;;6.95;4.70;;;;;;;;;;5094797;27;20428;-62
2023/06/26 05:08:17;;;;;;;4.88;4.47;;;;;;;;;;5102058;27;20451;-64
2023/06/26 05:10:44;;;;;;;6.53;4.80;;;;;;;;;;5099568;28;20920;-62
2023/06/26 05:13:11;;;;;;;5.72;4.88;;;;;;;;;;5099074;28;20428;-64
2023/06/26 05:15:38;;;;;;;4.90;4.40;;;;;;;;;;5094877;28;20443;-63
2023/06/26 05:18:06;;;;;;;5.68;4.97;;;;;;;;;;5090881;28;20422;-63
2023/06/26 05:20:33;;;;;;;4.70;4.30;;;;;;;;;;5090817;28;20505;-63
2023/06/26 05:23:01;;;;;;;5.70;4.10;;;;;;;;;;5090600;27;20498;-63
2023/06/26 05:25:30;;;;;;;5.15;4.65;;;;;;;;;;5095509;28;20420;-63
2023/06/26 05:27:57;;;;;;;4.53;4.13;;;;;;;;;;5096726;27;20430;-63
2023/06/26 05:30:25;;;;;;;6.32;4.55;;;;;;;;;;5090994;28;20429;-63
2023/06/26 05:32:52;;;;;;;4.70;4.20;;;;;;;;;;5096302;28;20847;-63
2023/06/26 05:35:21;;;;;;;4.82;4.32;;;;;;;;;;5095488;28;20991;-63
2023/06/26 05:37:49;;;;;;;5.40;4.90;;;;;;;;;;5094396;28;20433;-63
2023/06/26 05:40:17;;;;;;;4.97;4.40;;;;;;;;;;5097972;28;20428;-63
2023/06/26 05:42:46;;;;;;;5.70;4.57;;;;;;;;;;5096786;28;21027;-63
2023/06/26 05:45:13;;;;;;;5.20;4.40;;;;;;;;;;5101443;28;20453;-63
2023/06/26 05:47:40;;;;;;;7.60;4.33;;;;;;;;;;5090549;28;20517;-63
2023/06/26 05:50:08;;;;;;;5.20;4.70;;;;;;;;;;5102489;28;20429;-63
2023/06/26 05:52:35;;;;;;;5.30;4.20;;;;;;;;;;5090382;28;20410;-63
2023/06/26 05:55:03;;;;;;;7.47;5.00;;;;;;;;;;5101471;28;20908;-63
2023/06/26 05:57:31;;;;;;;4.78;4.28;;;;;;;;;;5103897;27;20453;-63
2023/06/26 06:00:00;;;;;;;6.00;4.40;;;;;;;;;;5100364;27;20430;-61
2023/06/26 06:02:27;;;;;;;4.53;4.10;;;;;;;;;;5096756;28;20939;-62
2023/06/26 06:04:54;;;;;;;6.22;4.50;;;;;;;;;;5090762;28;21032;-62
2023/06/26 06:07:21;;;;;;;5.70;4.40;;;;;;;;;;5101753;28;20424;-63
2023/06/26 06:09:48;;;;;;;5.60;4.78;;;;;;;;;;5091967;28;20428;-62
2023/06/26 06:12:15;;;;;;;6.20;4.53;;;;;;;;;;5098673;28;20424;-63
2023/06/26 06:14:42;;;;;;;4.50;3.80;;;;;;;;;;5088365;28;20406;-63
2023/06/26 06:17:11;;;;;;;4.70;4.30;;;;;;;;;;5104046;22;20437;-66
2023/06/26 06:19:38;;;;;;;5.68;4.60;;;;;;;;;;5081810;28;20768;-66
2023/06/26 06:22:05;;;;;;;6.10;4.50;;;;;;;;;;5079943;28;20513;-66
2023/06/26 06:24:32;;;;;;;5.43;4.00;;;;;;;;;;5094271;28;20428;-66
2023/06/26 06:26:59;;;;;;;5.60;4.35;;;;;;;;;;5090000;28;20451;-65
2023/06/26 06:29:26;;;;;;;6.10;4.30;;;;;;;;;;5085620;28;20423;-66
2023/06/26 06:31:53;;;;;;;5.05;4.45;;;;;;;;;;5082304;28;20433;-66
2023/06/26 06:34:21;;;;;;;5.73;4.40;;;;;;;;;;5085277;28;20437;-66
2023/06/26 06:36:49;;;;;;;5.47;4.20;;;;;;;;;;5085665;28;20695;-66
2023/06/26 06:39:16;;;;;;;6.18;4.15;;;;;;;;;;5089203;28;20448;-66
2023/06/26 06:41:43;;;;;;;4.50;4.10;;;;;;;;;;5078967;28;20537;-66
2023/06/26 06:44:10;;;;;;;5.63;4.40;;;;;;;;;;5082173;28;20436;-66
2023/06/26 06:46:38;;;;;;;6.90;4.40;;;;;;;;;;5081561;28;20507;-66
2023/06/26 06:49:05;;;;;;;5.22;3.90;;;;;;;;;;5076404;28;20418;-66
2023/06/26 06:51:33;;;;;;;7.30;4.35;;;;;;;;;;5082048;28;20441;-67
2023/06/26 06:54:00;;;;;;;6.18;3.90;;;;;;;;;;5082752;28;20406;-67
2023/06/26 06:56:27;;;;;;;5.25;4.00;;;;;;;;;;5081846;28;20422;-69
2023/06/26 06:58:55;;;;;;;6.35;3.80;;;;;;;;;;5080627;28;20426;-70
2023/06/26 07:01:22;;;;;;;7.20;4.50;;;;;;;;;;5089425;28;20419;-69
2023/06/26 07:03:49;;;;;;;4.70;4.20;;;;;;;;;;5083959;28;20771;-69
2023/06/26 07:06:16;;;;;;;5.47;3.92;;;;;;;;;;5080665;28;20440;-69
2023/06/26 07:08:44;;;;;;;4.35;3.70;;;;;;;;;;5083090;28;20515;-68
2023/06/26 07:11:11;;;;;;;5.22;4.00;;;;;;;;;;5081562;28;20430;-68
2023/06/26 07:13:38;;;;;;;4.50;3.60;;;;;;;;;;5082079;28;20441;-69
2023/06/26 07:16:05;;;;;;;6.07;4.40;;;;;;;;;;5086094;28;20425;-69
2023/06/26 07:18:32;;;;;;;7.32;4.45;;;;;;;;;;5082014;28;20452;-69
2023/06/26 07:21:00;;;;;;;4.47;3.85;;;;;;;;;;5081668;28;20655;-69
2023/06/26 07:23:27;;;;;;;4.60;3.83;;;;;;;;;;5082914;28;20453;-70
2023/06/26 07:25:55;;;;;;;7.88;4.20;;;;;;;;;;5079599;28;20854;-69
2023/06/26 07:28:22;;;;;;;6.07;4.57;;;;;;;;;;5074244;28;20456;-69
2023/06/26 07:30:49;;;;;;;6.05;4.30;;;;;;;;;;5071244;28;20431;-69
2023/06/26 07:33:16;;;;;;;6.80;4.60;;;;;;;;;;5082776;28;20777;-69
2023/06/26 07:35:43;;;;;;;5.10;4.60;;;;;;;;;;5089926;28;20426;-69
2023/06/26 07:38:10;;;;;;;8.93;4.70;;;;;;;;;;5083140;28;20493;-69
2023/06/26 07:40:37;;;;;;;7.00;4.43;;;;;;;;;;5085453;28;20448;-69
2023/06/26 07:43:06;;;;;;;6.35;4.43;;;;;;;;;;5082583;28;20413;-69
2023/06/26 07:45:33;;;;;;;6.93;4.50;;;;;;;;;;5081686;28;20535;-70
2023/06/26 07:48:00;;;;;;;5.43;3.93;;;;;;;;;;5074688;28;20526;-69
2023/06/26 07:50:27;;;;;;;4.20;3.80;;;;;;;;;;5085208;28;20773;-69
2023/06/26 07:52:54;;;;;;;4.85;4.10;;;;;;;;;;5092689;28;20426;-69
2023/06/26 07:55:21;;;;;;;5.00;4.10;;;;;;;;;;5087922;28;20878;-70
2023/06/26 07:57:50;;;;;;;4.22;3.80;;;;;;;;;;5097422;28;20431;-69
2023/06/26 08:00:19;;;;;;;6.30;4.30;;;;;;;;;;5081649;28;20461;-69
2023/06/26 08:02:46;;;;;;;7.13;4.10;;;;;;;;;;5082361;28;20440;-69
2023/06/26 08:05:13;;;;;;;4.53;3.73;;;;;;;;;;5078277;28;20444;-71
2023/06/26 08:07:40;;;;;;;4.60;3.90;;;;;;;;;;5080785;28;20437;-70
2023/06/26 08:10:07;;;;;;;6.00;4.10;;;;;;;;;;5073074;28;20462;-69
2023/06/26 08:12:36;;;;;;;5.13;3.80;;;;;;;;;;5082053;28;20922;-70
2023/06/26 08:15:04;;;;;;;7.00;4.70;;;;;;;;;;5081424;28;20422;-70
2023/06/26 08:17:33;;;;;;;4.68;3.75;;;;;;;;;;5079178;28;20456;-70
2023/06/26 08:20:00;;;;;;;4.85;4.32;;;;;;;;;;5081905;28;20417;-70
2023/06/26 08:22:27;;;;;;;6.57;4.00;;;;;;;;;;5089518;28;20915;-70
2023/06/26 08:24:54;;;;;;;4.80;3.80;;;;;;;;;;5076853;28;20430;-70
2023/06/26 08:27:21;;;;;;;5.22;4.20;;;;;;;;;;5081234;28;20440;-70
2023/06/26 08:29:48;;;;;;;4.57;3.67;;;;;;;;;;5081376;28;20887;-68
2023/06/26 08:32:15;;;;;;;4.40;4.00;;;;;;;;;;5087065;28;21057;-69
2023/06/26 08:34:44;;;;;;;5.38;4.38;;;;;;;;;;5082361;28;20413;-70
2023/06/26 08:37:11;;;;;;;4.80;3.90;;;;;;;;;;5089786;28;20436;-69
2023/06/26 08:39:38;;;;;;;4.45;4.00;;;;;;;;;;5091994;28;20521;-67
2023/06/26 08:42:05;;;;;;;6.13;4.00;;;;;;;;;;5087483;28;20440;-71
2023/06/26 08:44:32;;;;;;;5.00;3.75;;;;;;;;;;5078650;28;20855;-71
2023/06/26 08:47:01;;;;;;;7.22;4.10;;;;;;;;;;5086996;28;20512;-68
2023/06/26 08:49:31;;;;;;;5.97;4.00;;;;;;;;;;5079228;28;20502;-68
2023/06/26 08:52:03;;;;;;;4.50;4.10;;;;;;;;;;5086358;28;20887;-68
2023/06/26 08:54:34;;;;;;;5.63;3.70;;;;;;;;;;5083616;28;20422;-69
2023/06/26 08:57:02;;;;;;;8.57;3.70;;;;;;;;;;5084479;28;20430;-70
2023/06/26 08:59:29;;;;;;;7.03;4.68;;;;;;;;;;5084449;28;20799;-69
2023/06/26 09:01:56;;;;;;;6.07;3.80;;;;;;;;;;5081554;28;20425;-70
2023/06/26 09:04:23;;;;;;;5.75;3.60;;;;;;;;;;5086992;28;20475;-70
2023/06/26 09:06:50;;;;;;;5.90;3.90;;;;;;;;;;5086008;28;20973;-68
2023/06/26 09:09:19;;;;;;;5.53;3.80;;;;;;;;;;5084985;28;20430;-69
2023/06/26 09:11:46;;;;;;;6.50;3.70;;;;;;;;;;5084342;28;20699;-69
2023/06/26 09:14:13;;;;;;;4.90;3.90;;;;;;;;;;5087305;28;20436;-68
2023/06/26 09:16:43;;;;;;;5.00;3.53;;;;;;;;;;5088446;28;20433;-68
2023/06/26 09:19:12;;;;;;;6.90;4.28;;;;;;;;;;5087119;28;20417;-68
2023/06/26 09:21:40;;;;;;;6.38;3.47;;;;;;;;;;5080291;28;20846;-68
2023/06/26 09:24:08;;;;;;;6.70;4.00;;;;;;;;;;5083478;28;20438;-69
2023/06/26 09:26:37;;;;;;;5.50;3.83;;;;;;;;;;5097200;28;20452;-69
2023/06/26 09:29:04;;;;;;;5.50;3.67;;;;;;;;;;5086709;28;20425;-69
2023/06/26 09:31:31;;;;;;;5.78;3.50;;;;;;;;;;5083041;28;20430;-68
2023/06/26 09:34:00;;;;;;;4.90;3.33;;;;;;;;;;5069806;28;21071;-68
2023/06/26 09:36:32;;;;;;;5.25;3.60;;;;;;;;;;5085097;28;20466;-74
2023/06/26 09:39:00;;;;;;;4.85;3.33;;;;;;;;;;5089638;28;20914;-69
2023/06/26 09:41:27;;;;;;;5.25;3.63;;;;;;;;;;5080241;28;20862;-70
2023/06/26 09:43:55;;;;;;;4.50;3.20;;;;;;;;;;5082013;28;20441;-70
2023/06/26 09:46:26;;;;;;;4.40;3.00;;;;;;;;;;5091067;28;20917;-70
2023/06/26 09:48:59;;;;;;;5.65;3.22;;;;;;;;;;5080544;28;20481;-70
2023/06/26 09:51:26;;;;;;;5.50;3.20;;;;;;;;;;5082907;28;20802;-70
2023/06/26 09:53:53;;;;;;;7.07;3.60;;;;;;;;;;5094812;28;20475;-70
2023/06/26 09:56:21;;;;;;;6.18;3.45;;;;;;;;;;5092168;28;20422;-70
2023/06/26 09:58:48;;;;;;;4.07;3.53;;;;;;;;;;5082682;28;20982;-70
2023/06/26 10:01:17;;;;;;;5.00;3.20;;;;;;;;;;5082998;28;20414;-69
2023/06/26 10:03:44;;;;;;;5.20;3.13;;;;;;;;;;5075958;28;20430;-68
2023/06/26 10:06:13;;;;;;;5.32;3.30;;;;;;;;;;5083914;28;20440;-70
2023/06/26 10:08:41;;;;;;;5.43;3.10;;;;;;;;;;5079141;28;20612;-70
2023/06/26 10:11:09;;;;;;;5.33;3.30;;;;;;;;;;5079704;28;20424;-70
2023/06/26 10:13:40;;;;;;;4.60;3.50;;;;;;;;;;5082839;28;20430;-70
2023/06/26 10:16:08;;;;;;;4.70;3.15;;;;;;;;;;5077797;28;20430;-70
2023/06/26 10:18:38;;;;;;;4.13;2.80;;;;;;;;;;5081527;28;20473;-70
2023/06/26 10:21:06;;;;;;;4.17;3.10;;;;;;;;;;5084802;28;20441;-70
2023/06/26 10:23:34;;;;;;;4.20;2.90;;;;;;;;;;5083395;28;20474;-70
2023/06/26 10:26:02;;;;;;;5.28;2.92;;;;;;;;;;5084289;28;20894;-70
2023/06/26 10:28:30;;;;;;;6.05;3.10;;;;;;;;;;5082992;28;20437;-70
2023/06/26 10:30:58;;;;;;;7.20;3.10;;;;;;;;;;5079211;28;20440;-70
2023/06/26 10:33:25;;;;;;;5.03;2.80;;;;;;;;;;5082722;28;20441;-70
2023/06/26 10:35:53;;;;;;;3.70;2.30;;;;;;;;;;5079859;28;20447;-71
2023/06/26 10:38:20;;;;;;;3.85;2.50;;;;;;;;;;5080085;28;20406;-71
2023/06/26 10:40:49;;;;;;;4.07;2.72;;;;;;;;;;5066475;28;20476;-71
2023/06/26 10:43:18;;;;;;;3.65;2.63;;;;;;;;;;5080172;28;20430;-71
2023/06/26 10:45:46;;;;;;;4.85;2.95;;;;;;;;;;5086375;28;20432;-72
2023/06/26 10:48:14;;;;;;;4.50;2.60;;;;;;;;;;5069299;28;20446;-69
2023/06/26 10:50:41;;;;;;;3.05;2.30;;;;;;;;;;5075316;28;20538;-68
2023/06/26 10:53:10;;;;;;;4.03;2.63;;;;;;;;;;5084881;28;20433;-68
2023/06/26 10:55:37;;;;;;;6.32;2.50;;;;;;;;;;5083422;28;20441;-76
2023/06/26 10:58:04;;;;;;;4.50;2.30;;;;;;;;;;5080947;28;20426;-69
2023/06/26 11:00:31;;;;;;;5.78;2.60;;;;;;;;;;5076628;28;20779;-69
2023/06/26 11:03:00;;;;;;;5.03;2.65;;;;;;;;;;5081134;28;20461;-69
2023/06/26 11:05:28;;;;;;;3.30;2.38;;;;;;;;;;5087957;28;20461;-69
2023/06/26 11:08:05;;;;;;;4.35;2.47;;;;;;;;;;5082226;28;20452;-69
2023/06/26 11:10:49;;;;;;;5.22;2.10;;;;;;;;;;5083537;28;20433;-69
2023/06/26 11:13:18;;;;;;;4.88;2.13;;;;;;;;;;5063121;28;20422;-69
2023/06/26 11:15:45;;;;;;;4.00;1.70;;;;;;;;;;5080793;28;20794;-68
2023/06/26 11:18:12;;;;;;;3.72;1.90;;;;;;;;;;5081289;28;20544;-69
2023/06/26 11:20:39;;;;;;;4.40;1.80;;;;;;;;;;5083648;28;20803;-68
2023/06/26 11:23:07;;;;;;;3.90;1.90;;;;;;;;;;5078956;28;20425;-69
2023/06/26 11:25:37;;;;;;;3.53;1.92;;;;;;;;;;5072974;28;20924;-69
2023/06/26 11:28:04;;;;;;;3.92;2.33;;;;;;;;;;5073639;28;20430;-69
2023/06/26 11:30:32;;;;;;;3.28;2.30;;;;;;;;;;5083165;28;20511;-69
2023/06/26 11:33:05;;;;;;;3.65;2.50;;;;;;;;;;5076904;28;21157;-68
2023/06/26 11:35:32;;;;;;;3.15;2.05;;;;;;;;;;5087482;28;20595;-69
2023/06/26 11:38:03;;;;;;;4.78;2.38;;;;;;;;;;5078827;28;20453;-69
2023/06/26 11:40:31;;;;;;;3.90;2.00;;;;;;;;;;5082614;28;20441;-68
2023/06/26 11:43:00;;;;;;;3.65;1.90;;;;;;;;;;5084410;28;20776;-69
2023/06/26 11:45:29;;;;;;;3.20;1.90;;;;;;;;;;5082657;28;20425;-69
2023/06/26 11:47:57;;;;;;;4.57;2.03;;;;;;;;;;5083111;28;20930;-69
2023/06/26 11:50:24;;;;;;;4.40;1.80;;;;;;;;;;5080520;28;20410;-69
2023/06/26 11:52:55;;;;;;;4.75;2.58;;;;;;;;;;5081026;28;20765;-69
2023/06/26 11:55:22;;;;;;;3.60;2.30;;;;;;;;;;5084387;28;20434;-69
2023/06/26 11:57:50;;;;;;;3.80;2.03;;;;;;;;;;5081259;28;20425;-69
2023/06/26 12:00:19;;;;;;;3.50;1.98;;;;;;;;;;5067434;28;20900;-69
2023/06/26 12:02:46;;;;;;;3.65;1.70;;;;;;;;;;5084101;28;20429;-69
2023/06/26 12:05:14;;;;;;;3.80;2.00;;;;;;;;;;5089209;28;20537;-70
2023/06/26 12:07:42;;;;;;;3.08;1.85;;;;;;;;;;5085891;28;20426;-69
2023/06/26 12:10:10;;;;;;;3.35;1.60;;;;;;;;;;5083076;28;20434;-69
2023/06/26 12:12:37;;;;;;;3.80;1.58;;;;;;;;;;5079876;28;20436;-69
2023/06/26 12:15:05;;;;;;;4.28;1.30;;;;;;;;;;5089725;28;20482;-69
2023/06/26 12:17:33;;;;;;;2.67;1.93;;;;;;;;;;5051285;22;20447;-66
2023/06/26 12:20:00;;;;;;;3.65;1.50;;;;;;;;;;5013347;28;20435;-66
2023/06/26 12:22:35;;;;;;;2.60;1.30;;;;;;;;;;5020503;28;20415;-66
2023/06/26 12:25:02;;;;;;;3.70;1.80;;;;;;;;;;5024500;28;20436;-67
2023/06/26 12:27:30;;;;;;;3.28;1.60;;;;;;;;;;5019030;28;20429;-67
2023/06/26 12:29:57;;;;;;;3.73;1.70;;;;;;;;;;5011025;28;20443;-68
2023/06/26 12:32:25;;;;;;;4.10;2.03;;;;;;;;;;5012342;28;20436;-67
2023/06/26 12:34:53;;;;;;;3.50;1.60;;;;;;;;;;5010454;28;20428;-70
2023/06/26 12:37:21;;;;;;;2.65;2.00;;;;;;;;;;5010818;28;20914;-67
2023/06/26 12:39:49;;;;;;;4.10;1.50;;;;;;;;;;5007109;28;20539;-69
2023/06/26 12:42:16;;;;;;;3.42;1.70;;;;;;;;;;5012604;28;20451;-68
2023/06/26 12:44:43;;;;;;;2.78;1.60;;;;;;;;;;5006947;28;20446;-67
2023/06/26 12:47:13;;;;;;;2.55;1.40;;;;;;;;;;5015192;28;20435;-67
2023/06/26 12:49:40;;;;;;;3.53;1.70;;;;;;;;;;5008682;28;20530;-69
2023/06/26 12:52:09;;;;;;;4.80;1.55;;;;;;;;;;5009350;28;20436;-67
2023/06/26 12:54:37;;;;;;;4.10;1.50;;;;;;;;;;5016316;28;20443;-69
2023/06/26 12:57:04;;;;;;;2.40;1.50;;;;;;;;;;5012855;28;20807;-68
2023/06/26 12:59:32;;;;;;;3.45;1.50;;;;;;;;;;5010453;28;20463;-68
2023/06/26 13:01:59;;;;;;;2.45;1.40;;;;;;;;;;5013555;28;20592;-69
2023/06/26 13:04:26;;;;;;;1.70;1.20;;;;;;;;;;5013331;28;20574;-68
2023/06/26 13:06:54;;;;;;;1.88;1.20;;;;;;;;;;5020349;28;20428;-67
2023/06/26 13:09:23;;;;;;;1.80;1.00;;;;;;;;;;5006026;28;20427;-69
2023/06/26 13:11:50;;;;;;;2.80;1.42;;;;;;;;;;5011208;28;21006;-68
2023/06/26 13:14:18;;;;;;;4.00;1.30;;;;;;;;;;5012992;28;20441;-69
2023/06/26 13:16:45;;;;;;;3.10;1.20;;;;;;;;;;5026531;28;20423;-68
2023/06/26 13:19:12;;;;;;;3.85;1.15;;;;;;;;;;5013740;28;20425;-68
2023/06/26 13:21:39;;;;;;;6.35;1.42;;;;;;;;;;5013033;28;20431;-68
2023/06/26 13:24:06;;;;;;;5.57;1.58;;;;;;;;;;5014414;28;20435;-67
2023/06/26 13:26:35;;;;;;;5.47;1.40;;;;;;;;;;5011300;28;20789;-71
2023/06/26 13:29:03;;;;;;;6.55;1.73;;;;;;;;;;5014256;28;20428;-68
2023/06/26 13:31:30;;;;;;;4.07;1.50;;;;;;;;;;5006476;28;20438;-69
2023/06/26 13:33:58;;;;;;;3.43;1.20;;;;;;;;;;5013076;28;20437;-69
2023/06/26 13:36:26;;;;;;;5.20;1.50;;;;;;;;;;5009670;28;20775;-67
2023/06/26 13:38:55;;;;;;;3.78;1.20;;;;;;;;;;5012702;28;20435;-68
2023/06/26 13:41:22;;;;;;;4.63;1.50;;;;;;;;;;5009770;28;20461;-68
2023/06/26 13:43:51;;;;;;;4.03;1.25;;;;;;;;;;5015839;28;20513;-67
2023/06/26 13:46:18;;;;;;;5.40;1.80;;;;;;;;;;5010161;28;20421;-68
2023/06/26 13:48:45;;;;;;;3.95;1.50;;;;;;;;;;5007370;28;20828;-69
2023/06/26 13:51:12;;;;;;;3.30;1.20;;;;;;;;;;5012084;28;20440;-68
2023/06/26 13:53:39;;;;;;;3.60;1.30;;;;;;;;;;5014112;28;20440;-71
2023/06/26 13:56:07;;;;;;;2.00;1.20;;;;;;;;;;5011634;28;20438;-68
2023/06/26 13:58:38;;;;;;;4.78;1.10;;;;;;;;;;5013561;28;20454;-68
2023/06/26 14:01:06;;;;;;;1.85;0.90;;;;;;;;;;5021248;28;20442;-69
2023/06/26 14:03:33;;;;;;;2.00;0.90;;;;;;;;;;5017924;28;20442;-68
2023/06/26 14:06:00;;;;;;;2.50;1.13;;;;;;;;;;5006286;28;20428;-68
2023/06/26 14:08:28;;;;;;;2.83;1.30;;;;;;;;;;5006954;28;20448;-68
2023/06/26 14:10:55;;;;;;;4.03;1.30;;;;;;;;;;5006969;28;20581;-64
2023/06/26 14:13:22;;;;;;;2.92;1.38;;;;;;;;;;5007392;28;20926;-66
2023/06/26 14:15:52;;;;;;;2.55;1.40;;;;;;;;;;5017251;28;20944;-65
2023/06/26 14:18:23;;;;;;;2.20;1.25;;;;;;;;;;5011543;28;20436;-67
2023/06/26 14:20:50;;;;;;;3.58;1.17;;;;;;;;;;5005971;28;20444;-65
2023/06/26 14:23:17;;;;;;;3.07;1.10;;;;;;;;;;5019239;28;20534;-63
2023/06/26 14:25:44;;;;;;;63.35;15.20;;;;;;;;;;5017905;28;20441;-77
2023/06/26 14:28:11;;;;;;;6.13;2.05;;;;;;;;;;5011739;28;20444;-73
2023/06/26 14:30:38;;;;;;;5.40;1.30;;;;;;;;;;5014586;28;20421;-77
2023/06/26 14:33:05;;;;;;;9.77;4.50;;;;;;;;;;5005798;28;21092;-74
2023/06/26 14:35:35;;;;;;;4.35;1.48;;;;;;;;;;5008088;28;20805;-74
2023/06/26 14:38:02;;;;;;;2.00;1.10;;;;;;;;;;5009365;28;20927;-75
2023/06/26 14:40:29;;;;;;;3.10;1.40;;;;;;;;;;5019213;28;20435;-79
2023/06/26 14:42:56;;;;;;;3.13;1.27;;;;;;;;;;5011874;28;20949;-73
2023/06/26 14:45:23;;;;;;;4.20;1.33;;;;;;;;;;5007718;28;20555;-72